Time;durP1;ratioP1;P1;durP2;ratioP2;P2;SDS_P1;SDS_P2;PMS_P1;PMS_P2;Temp;Humidity;BMP_temperature;BMP_pressure;BME280_temperature;BME280_humidity;BME280_pressure;Samples;Min_cycle;Max_cycle;Signal;HPM_P1;HPM_P2
2022/03/22 00:00:44;;;;;;;39.35;19.40;;;;;;;-0.65;57.70;94753.34;5113848;28;20028;-43
2022/03/22 00:03:10;;;;;;;36.97;20.75;;;;;;;-0.63;58.13;94759.06;5113944;28;20420;-43
2022/03/22 00:05:40;;;;;;;25.50;16.67;;;;;;;-1.10;59.55;94767.34;5113808;28;20470;-43
2022/03/22 00:08:06;;;;;;;26.77;16.08;;;;;;;-1.03;59.47;94732.63;5113485;28;20027;-43
2022/03/22 00:10:31;;;;;;;28.17;16.42;;;;;;;-1.26;60.11;94768.31;5113107;28;20098;-42
2022/03/22 00:12:56;;;;;;;33.35;18.95;;;;;;;-1.16;59.67;94759.06;5113597;28;20470;-44
2022/03/22 00:15:22;;;;;;;33.83;16.55;;;;;;;-1.18;59.40;94753.31;5113622;28;20077;-43
2022/03/22 00:17:47;;;;;;;28.10;15.35;;;;;;;-1.06;58.81;94754.47;5113600;28;20051;-43
2022/03/22 00:20:13;;;;;;;28.33;17.35;;;;;;;-0.95;58.54;94760.22;5113533;28;20572;-45
2022/03/22 00:22:39;;;;;;;34.28;18.98;;;;;;;-1.06;59.55;94752.47;5113161;28;20086;-43
2022/03/22 00:25:06;;;;;;;34.00;20.27;;;;;;;-1.08;59.44;94748.69;5112200;28;20024;-43
2022/03/22 00:27:50;;;;;;;38.85;19.27;;;;;;;-1.27;59.98;94736.22;5113378;28;20146;-43
2022/03/22 00:30:17;;;;;;;28.13;14.98;;;;;;;-1.34;59.76;94748.06;5106125;28;20523;-43
2022/03/22 00:32:42;;;;;;;36.13;19.05;;;;;;;-1.18;58.92;94739.78;5092521;28;20024;-43
2022/03/22 00:35:08;;;;;;;25.60;14.80;;;;;;;-1.17;58.21;94741.28;5092586;28;20020;-42
2022/03/22 00:37:37;;;;;;;29.60;17.30;;;;;;;-1.06;58.76;94733.50;5092519;28;20032;-43
2022/03/22 00:40:07;;;;;;;23.55;11.98;;;;;;;-1.35;58.90;94734.97;5095070;28;20020;-43
2022/03/22 00:42:32;;;;;;;25.98;12.93;;;;;;;-1.13;56.26;94733.03;5113141;28;20023;-43
2022/03/22 00:44:58;;;;;;;26.13;13.68;;;;;;;-1.07;57.42;94736.66;5113133;27;20521;-43
2022/03/22 00:47:24;;;;;;;27.90;12.52;;;;;;;-0.96;55.12;94732.38;5112963;28;20404;-45
2022/03/22 00:49:49;;;;;;;28.85;14.02;;;;;;;-0.88;56.90;94722.03;5112696;28;20024;-43
2022/03/22 00:52:15;;;;;;;24.10;13.43;;;;;;;-0.79;55.36;94724.78;5112254;27;20034;-44
2022/03/22 00:54:40;;;;;;;20.70;11.43;;;;;;;-0.57;52.70;94730.91;5111192;28;20145;-43
2022/03/22 00:57:06;;;;;;;22.00;10.30;;;;;;;-0.41;52.53;94727.94;5091944;28;20052;-44
2022/03/22 01:02:15;;;;;;;20.00;10.13;;;;;;;-0.11;50.60;94720.97;5092368;28;20046;-43
2022/03/22 01:04:40;;;;;;;13.18;8.48;;;;;;;0.08;49.26;94725.22;5092238;28;20031;-43
2022/03/22 01:07:06;;;;;;;18.10;9.68;;;;;;;0.25;49.23;94722.97;5092219;28;20028;-44
2022/03/22 01:09:31;;;;;;;18.80;10.27;;;;;;;0.23;48.50;94687.38;5092163;28;20440;-43
2022/03/22 01:11:57;;;;;;;16.52;9.82;;;;;;;0.57;47.95;94716.94;5110581;28;20035;-44
2022/03/22 01:14:25;;;;;;;17.40;9.95;;;;;;;0.66;46.73;94719.69;5112443;28;20028;-45
2022/03/22 01:16:52;;;;;;;17.27;10.13;;;;;;;0.67;47.24;94724.66;5112149;28;20020;-43
2022/03/22 01:19:21;;;;;;;15.52;9.68;;;;;;;0.68;46.92;94714.53;5112093;28;20041;-43
2022/03/22 01:21:47;;;;;;;23.67;12.18;;;;;;;0.57;47.62;94673.47;5111058;28;20053;-44
2022/03/22 01:24:13;;;;;;;22.55;12.07;;;;;;;0.80;46.12;94697.31;5112200;28;20080;-43
2022/03/22 01:26:38;;;;;;;18.10;10.82;;;;;;;0.92;44.78;94696.38;5110659;28;20035;-44
2022/03/22 01:29:03;;;;;;;19.33;11.27;;;;;;;0.93;46.79;94694.44;5112057;28;20023;-43
2022/03/22 01:31:29;;;;;;;27.15;12.75;;;;;;;0.95;46.12;94698.22;5112165;28;20090;-42
2022/03/22 01:33:54;;;;;;;33.67;15.30;;;;;;;1.01;46.61;94707.25;5111629;28;20413;-42
2022/03/22 01:36:21;;;;;;;26.60;13.77;;;;;;;1.05;46.39;94701.66;5112037;28;20032;-42
2022/03/22 01:38:47;;;;;;;22.10;11.90;;;;;;;1.05;46.27;94696.97;5111980;28;20051;-43
2022/03/22 01:41:13;;;;;;;20.27;12.85;;;;;;;1.00;45.63;94710.41;5099008;28;20062;-42
2022/03/22 01:43:39;;;;;;;19.33;10.20;;;;;;;1.04;46.25;94692.72;5091284;28;20024;-42
2022/03/22 01:46:04;;;;;;;21.40;10.23;;;;;;;1.12;43.54;94685.78;5091456;28;20035;-42
2022/03/22 01:48:31;;;;;;;20.30;11.52;;;;;;;1.05;44.57;94683.38;5089980;28;20020;-43
2022/03/22 01:50:57;;;;;;;21.30;11.02;;;;;;;0.98;45.36;94670.09;5091344;28;20045;-43
2022/03/22 01:53:22;;;;;;;19.15;10.30;;;;;;;1.11;45.99;94684.25;5091281;28;20059;-43
2022/03/22 01:55:48;;;;;;;14.80;9.73;;;;;;;1.10;45.40;94688.19;5100854;28;20051;-42
2022/03/22 01:58:14;;;;;;;18.15;10.27;;;;;;;1.10;45.69;94682.75;5111178;28;20508;-43
2022/03/22 02:00:40;;;;;;;16.00;10.30;;;;;;;0.92;45.71;94699.09;5111566;28;20023;-42
2022/03/22 02:05:51;;;;;;;15.35;9.93;;;;;;;0.78;46.41;94686.13;5111506;28;20092;-43
2022/03/22 02:08:21;;;;;;;21.60;11.70;;;;;;;0.78;46.42;94686.13;5111455;28;20019;-43
2022/03/22 02:10:47;;;;;;;24.33;11.50;;;;;;;0.71;47.43;94683.75;5109792;28;20024;-43
2022/03/22 02:13:13;;;;;;;21.58;12.98;;;;;;;0.40;47.62;94664.13;5111265;28;20378;-42
2022/03/22 02:15:38;;;;;;;27.63;12.88;;;;;;;0.55;47.32;94689.47;5111031;28;20460;-44
2022/03/22 02:18:04;;;;;;;19.55;11.23;;;;;;;0.61;47.87;94687.66;5110909;28;20035;-42
2022/03/22 02:20:30;;;;;;;21.25;11.27;;;;;;;0.31;48.11;94678.47;5111298;28;20035;-42
2022/03/22 02:23:04;;;;;;;17.98;9.70;;;;;;;0.29;47.00;94686.31;5102533;28;20534;-43
2022/03/22 02:25:29;;;;;;;16.55;8.57;;;;;;;0.17;47.31;94678.31;5089424;28;20031;-42
2022/03/22 02:27:55;;;;;;;16.70;9.63;;;;;;;0.19;47.07;94682.09;5090738;28;20042;-42
2022/03/22 02:30:21;;;;;;;15.43;9.40;;;;;;;0.16;47.17;94676.81;5090495;28;20024;-42
2022/03/22 02:32:55;;;;;;;17.35;9.05;;;;;;;0.09;49.63;94679.84;5090413;28;20047;-42
2022/03/22 02:35:22;;;;;;;18.98;8.82;;;;;;;0.29;48.43;94693.72;5090662;28;20023;-42
2022/03/22 02:37:49;;;;;;;13.25;8.23;;;;;;;0.35;47.01;94700.81;5090338;28;20024;-43
2022/03/22 02:40:15;;;;;;;17.65;9.48;;;;;;;0.06;49.54;94707.88;5094288;28;20107;-42
2022/03/22 02:42:49;;;;;;;19.38;9.25;;;;;;;-0.43;51.50;94699.75;5110633;28;20554;-43
2022/03/22 02:45:15;;;;;;;17.65;8.32;;;;;;;-0.13;49.72;94705.13;5109549;28;20026;-43
2022/03/22 02:47:41;;;;;;;14.15;8.88;;;;;;;-0.19;50.29;94706.91;5110665;28;20110;-43
2022/03/22 02:50:07;;;;;;;12.82;7.95;;;;;;;-0.36;49.21;94708.38;5110571;28;20026;-43
2022/03/22 02:52:33;;;;;;;18.98;10.55;;;;;;;-0.37;51.99;94706.84;5110845;28;20038;-44
2022/03/22 02:54:59;;;;;;;23.10;12.05;;;;;;;-0.26;53.14;94695.59;5107723;28;20493;-43
2022/03/22 02:57:24;;;;;;;20.60;12.95;;;;;;;-0.48;52.41;94695.69;5090173;28;20047;-43
2022/03/22 02:59:49;;;;;;;24.20;12.50;;;;;;;-0.67;53.39;94698.78;5090463;28;20016;-44
2022/03/22 03:02:15;;;;;;;19.80;11.77;;;;;;;-0.87;53.18;94701.84;5090433;28;20012;-44
2022/03/22 03:04:40;;;;;;;29.15;13.52;;;;;;;-0.87;54.34;94707.28;5088908;28;20486;-43
2022/03/22 03:07:06;;;;;;;21.73;11.82;;;;;;;-0.78;54.97;94704.63;5090004;28;20028;-43
2022/03/22 03:09:31;;;;;;;21.65;13.07;;;;;;;-0.94;55.10;94702.13;5090399;28;20024;-43
2022/03/22 03:11:57;;;;;;;19.20;9.40;;;;;;;-0.97;53.91;94692.16;5108762;28;20473;-45
2022/03/22 03:14:40;;;;;;;18.60;10.50;;;;;;;-0.91;54.09;94696.56;5110370;28;20424;-44
2022/03/22 03:17:13;;;;;;;17.15;9.40;;;;;;;-1.18;55.85;94692.94;5110655;28;20016;-43
2022/03/22 03:19:39;;;;;;;16.10;8.45;;;;;;;-1.31;56.21;94694.97;5110472;28;20077;-42
2022/03/22 03:22:06;;;;;;;20.05;9.68;;;;;;;-1.11;56.20;94689.97;5110585;28;20012;-43
2022/03/22 03:24:32;;;;;;;18.58;9.52;;;;;;;-1.52;56.62;94697.22;5110290;28;20038;-43
2022/03/22 03:26:58;;;;;;;16.50;8.50;;;;;;;-1.40;55.97;94667.81;5110557;28;20024;-43
2022/03/22 03:29:24;;;;;;;16.88;9.77;;;;;;;-1.37;55.66;94697.50;5110221;28;20062;-43
2022/03/22 03:31:49;;;;;;;12.48;8.35;;;;;;;-1.53;56.63;94703.09;5110216;28;20051;-44
2022/03/22 03:34:16;;;;;;;12.88;7.85;;;;;;;-1.38;55.33;94700.63;5110094;28;20016;-43
2022/03/22 03:36:41;;;;;;;22.98;10.10;;;;;;;-1.34;56.06;94704.00;5110108;28;20024;-43
2022/03/22 03:39:08;;;;;;;20.17;10.43;;;;;;;-1.38;57.46;94700.63;5110428;28;20027;-43
2022/03/22 03:47:05;;;;;;;21.13;10.68;;;;;;;-1.28;56.04;94702.22;5112957;28;20581;-45
2022/03/22 03:49:33;;;;;;;17.45;10.00;;;;;;;-1.31;55.98;94694.97;5113639;28;20031;-44
2022/03/22 03:51:58;;;;;;;25.27;15.13;;;;;;;-1.49;56.06;94690.19;5113780;28;20039;-43
2022/03/22 03:54:24;;;;;;;12.88;8.65;;;;;;;-1.88;56.82;94686.13;5113714;28;20108;-43
2022/03/22 03:56:49;;;;;;;14.23;9.10;;;;;;;-1.81;56.56;94672.34;5095475;28;20047;-43
2022/03/22 03:59:15;;;;;;;19.42;12.52;;;;;;;-1.49;54.87;94692.91;5093579;28;20016;-43
2022/03/22 04:01:40;;;;;;;17.90;10.82;;;;;;;-1.48;54.78;94686.28;5093473;28;20031;-44
2022/03/22 04:04:06;;;;;;;13.80;9.15;;;;;;;-1.28;52.99;94680.56;5093426;28;20020;-43
2022/03/22 04:06:32;;;;;;;16.88;8.27;;;;;;;-1.15;52.69;94689.34;5093416;28;20413;-44
2022/03/22 04:08:58;;;;;;;15.35;8.38;;;;;;;-1.13;51.14;94673.41;5093078;28;20027;-43
2022/03/22 04:11:23;;;;;;;14.75;8.27;;;;;;;-1.01;52.11;94686.09;5106852;28;20023;-43
2022/03/22 04:13:48;;;;;;;20.38;11.57;;;;;;;-0.84;50.79;94699.00;5113251;28;20031;-43
2022/03/22 04:16:14;;;;;;;24.80;11.13;;;;;;;-0.81;51.27;94694.66;5113289;27;20020;-43
2022/03/22 04:18:39;;;;;;;16.00;8.85;;;;;;;-0.60;50.60;94704.69;5113568;28;20050;-44
2022/03/22 04:21:05;;;;;;;13.63;8.90;;;;;;;-0.67;51.41;94696.81;5113209;28;20023;-43
2022/03/22 04:23:31;;;;;;;18.23;8.43;;;;;;;-0.65;51.85;94686.25;5113340;28;20024;-44
2022/03/22 04:25:57;;;;;;;13.82;8.38;;;;;;;-0.64;52.47;94692.44;5113328;28;20164;-43
2022/03/22 04:33:51;;;;;;;16.33;8.60;;;;;;;-0.64;52.81;94681.59;5113048;28;20033;-43
2022/03/22 04:36:17;;;;;;;16.30;9.48;;;;;;;-0.88;53.42;94646.88;5113216;28;20019;-44
2022/03/22 04:38:43;;;;;;;14.18;9.13;;;;;;;-0.77;54.29;94679.75;5112898;28;20030;-43
2022/03/22 04:41:09;;;;;;;14.75;10.20;;;;;;;-0.66;51.79;94682.06;5112470;28;20102;-43
2022/03/22 04:43:34;;;;;;;16.23;9.50;;;;;;;-0.69;51.34;94691.06;5112708;28;20011;-43
2022/03/22 04:46:01;;;;;;;21.85;9.80;;;;;;;-0.72;51.91;94683.84;5113078;27;20015;-43
2022/03/22 04:48:27;;;;;;;16.65;8.50;;;;;;;-0.58;50.44;94690.66;5113012;27;20027;-45
2022/03/22 04:56:43;;;;;;;19.60;11.10;;;;;;;-0.57;49.71;94668.53;5112958;28;20031;-43
2022/03/22 04:59:10;;;;;;;66.15;25.13;;;;;;;-0.34;49.30;94681.56;5092210;28;20029;-42
2022/03/22 05:01:36;;;;;;;43.80;18.60;;;;;;;-0.20;48.33;94682.94;5092296;28;20542;-43
2022/03/22 05:04:01;;;;;;;31.40;17.25;;;;;;;-0.20;48.13;94678.28;5092345;28;20030;-45
2022/03/22 05:06:26;;;;;;;24.35;14.77;;;;;;;-0.13;48.87;94669.09;5092196;28;20085;-43
2022/03/22 05:08:55;;;;;;;21.08;11.75;;;;;;;0.01;47.78;94665.78;5092261;28;20040;-42
2022/03/22 05:11:22;;;;;;;23.90;14.88;;;;;;;0.27;46.07;94649.94;5105545;28;20046;-41
2022/03/22 05:13:48;;;;;;;19.55;9.70;;;;;;;0.50;45.65;94654.75;5112355;28;20031;-42
2022/03/22 05:16:14;;;;;;;12.00;7.35;;;;;;;0.63;44.68;94666.22;5112468;28;20400;-42
2022/03/22 05:18:40;;;;;;;17.02;9.30;;;;;;;0.61;46.33;94647.66;5112076;28;20462;-42
2022/03/22 05:21:07;;;;;;;15.00;8.38;;;;;;;0.80;44.86;94674.81;5112090;28;20023;-41
2022/03/22 05:23:34;;;;;;;15.90;8.25;;;;;;;0.91;45.33;94669.66;5112077;28;20024;-42
2022/03/22 05:25:59;;;;;;;14.48;8.55;;;;;;;1.09;43.83;94675.81;5111919;28;20039;-42
2022/03/22 05:28:25;;;;;;;14.00;9.02;;;;;;;1.21;43.67;94661.25;5111809;28;20035;-44
2022/03/22 05:30:50;;;;;;;17.15;10.43;;;;;;;1.41;43.84;94664.19;5111856;28;20028;-42
2022/03/22 05:33:15;;;;;;;18.63;11.05;;;;;;;1.61;42.98;94666.38;5111716;28;20088;-42
2022/03/22 05:35:41;;;;;;;15.13;10.02;;;;;;;1.86;42.71;94660.50;5111813;28;20027;-42
2022/03/22 05:38:06;;;;;;;20.67;13.27;;;;;;;2.09;41.67;94656.25;5111683;28;20023;-43
2022/03/22 05:40:32;;;;;;;21.98;11.35;;;;;;;2.42;40.88;94648.00;5104572;28;20035;-43
2022/03/22 05:42:57;;;;;;;15.15;9.15;;;;;;;2.84;39.12;94649.25;5091461;28;20031;-43
2022/03/22 05:45:29;;;;;;;15.23;10.15;;;;;;;3.31;39.74;94639.38;5091290;28;20454;-42
2022/03/22 05:47:55;;;;;;;15.65;10.73;;;;;;;3.74;38.30;94636.56;5091469;28;20024;-42
2022/03/22 05:50:20;;;;;;;16.85;8.77;;;;;;;3.76;37.23;94636.81;5091134;28;20073;-42
2022/03/22 05:52:47;;;;;;;15.63;8.85;;;;;;;3.78;37.28;94633.59;5091268;28;20020;-43
2022/03/22 05:55:13;;;;;;;17.63;8.57;;;;;;;3.84;37.79;94631.69;5094753;28;20070;-42
2022/03/22 05:57:39;;;;;;;13.77;8.88;;;;;;;4.42;35.96;94623.22;5111160;28;20467;-42
2022/03/22 06:00:06;;;;;;;21.08;11.43;;;;;;;5.23;35.03;94642.94;5111629;28;20024;-43
2022/03/22 06:02:31;;;;;;;19.42;10.48;;;;;;;5.24;35.18;94630.00;5111571;28;20034;-43
2022/03/22 06:04:59;;;;;;;14.10;9.63;;;;;;;5.03;34.62;94636.78;5111493;28;20456;-43
2022/03/22 06:07:25;;;;;;;19.48;10.27;;;;;;;5.04;34.57;94638.28;5110856;28;20027;-42
2022/03/22 06:09:51;;;;;;;14.95;9.55;;;;;;;4.82;35.33;94633.34;5110197;28;20055;-43
2022/03/22 06:12:18;;;;;;;13.75;8.90;;;;;;;4.45;35.31;94630.47;5090717;28;20524;-43
2022/03/22 06:14:43;;;;;;;17.40;9.07;;;;;;;4.20;36.33;94633.91;5090653;28;20548;-43
2022/03/22 06:17:09;;;;;;;16.10;9.73;;;;;;;4.09;35.45;94636.53;5091002;28;20058;-43
2022/03/22 06:19:34;;;;;;;20.25;9.02;;;;;;;3.90;36.65;94629.78;5090921;28;20028;-43
2022/03/22 06:22:00;;;;;;;15.05;9.15;;;;;;;3.79;37.24;94646.03;5090608;28;20421;-42
2022/03/22 06:24:26;;;;;;;14.85;9.43;;;;;;;3.66;37.43;94646.34;5090547;28;20019;-44
2022/03/22 06:26:52;;;;;;;14.50;9.18;;;;;;;3.67;37.63;94644.38;5090611;28;20028;-43
2022/03/22 06:29:17;;;;;;;31.23;8.98;;;;;;;3.68;38.01;94637.69;5090762;28;20028;-43
2022/03/22 06:31:44;;;;;;;18.77;9.38;;;;;;;3.74;37.86;94644.75;5090749;28;20028;-43
2022/03/22 06:34:09;;;;;;;13.23;8.60;;;;;;;3.78;38.18;94650.75;5090384;28;20528;-43
2022/03/22 06:36:34;;;;;;;15.23;9.13;;;;;;;3.94;38.04;94656.94;5090724;28;20024;-43
2022/03/22 06:39:00;;;;;;;19.88;11.68;;;;;;;4.00;37.47;94660.47;5089987;28;20528;-44
2022/03/22 06:41:25;;;;;;;22.90;12.43;;;;;;;4.11;36.99;94657.91;5103971;28;20043;-44
2022/03/22 06:43:51;;;;;;;17.67;10.07;;;;;;;4.19;37.67;94653.53;5110607;28;20140;-43
2022/03/22 06:46:16;;;;;;;21.13;11.50;;;;;;;4.28;37.83;94659.63;5110653;28;20027;-43
2022/03/22 06:48:42;;;;;;;29.63;15.70;;;;;;;4.51;36.58;94658.63;5110902;28;20023;-43
2022/03/22 06:51:08;;;;;;;17.88;11.68;;;;;;;4.64;36.53;94655.53;5110563;28;20050;-43
2022/03/22 06:53:33;;;;;;;16.55;9.68;;;;;;;4.67;36.55;94656.56;5110529;28;20063;-43
2022/03/22 06:55:59;;;;;;;16.73;9.75;;;;;;;4.80;36.19;94646.00;5099611;28;20035;-43
2022/03/22 06:58:26;;;;;;;16.13;9.20;;;;;;;4.91;37.79;94654.34;5090106;28;20052;-42
2022/03/22 07:00:55;;;;;;;16.85;9.80;;;;;;;5.20;36.15;94645.88;5090143;28;20580;-42
2022/03/22 07:03:20;;;;;;;22.33;11.27;;;;;;;5.39;36.31;94652.53;5091501;28;20024;-44
2022/03/22 07:05:46;;;;;;;20.50;10.82;;;;;;;5.40;36.10;94645.81;5110676;28;20032;-43
2022/03/22 07:08:12;;;;;;;18.15;10.65;;;;;;;5.25;37.17;94645.94;5110745;28;20516;-44
2022/03/22 07:10:38;;;;;;;17.70;10.68;;;;;;;5.27;36.26;94651.69;5103110;28;20549;-44
2022/03/22 07:13:05;;;;;;;16.88;8.90;;;;;;;5.12;36.81;94644.81;5089989;28;20115;-43
2022/03/22 07:15:36;;;;;;;18.52;9.35;;;;;;;5.08;37.13;94645.03;5090169;28;20028;-43
2022/03/22 07:18:06;;;;;;;18.40;9.00;;;;;;;5.10;36.63;94639.09;5090008;28;20030;-43
2022/03/22 07:20:32;;;;;;;19.27;9.60;;;;;;;4.97;36.80;94631.25;5091404;28;20024;-43
2022/03/22 07:22:59;;;;;;;24.35;9.98;;;;;;;4.86;37.59;94633.88;5094245;28;20043;-45
2022/03/22 07:25:24;;;;;;;25.42;9.65;;;;;;;4.86;37.11;94622.94;5094210;28;20059;-43
2022/03/22 07:27:50;;;;;;;16.30;9.85;;;;;;;4.80;37.91;94626.84;5094259;28;20047;-45
2022/03/22 07:30:16;;;;;;;23.67;9.95;;;;;;;4.77;37.53;94636.78;5093831;28;20020;-43
2022/03/22 07:32:42;;;;;;;15.73;9.25;;;;;;;4.74;38.88;94631.53;5093701;28;20020;-43
2022/03/22 07:35:09;;;;;;;15.13;9.38;;;;;;;4.58;38.42;94619.94;5094048;28;20413;-44
2022/03/22 07:37:35;;;;;;;25.88;12.20;;;;;;;4.76;38.31;94645.47;5092473;28;20024;-43
2022/03/22 07:40:03;;;;;;;17.38;9.07;;;;;;;4.69;39.14;94637.69;5093560;28;20031;-43
2022/03/22 07:42:29;;;;;;;20.42;10.55;;;;;;;4.79;38.76;94639.78;5093584;28;20031;-42
2022/03/22 07:45:01;;;;;;;15.32;9.55;;;;;;;4.78;38.75;94648.47;5093848;28;20039;-43
2022/03/22 07:47:28;;;;;;;25.88;12.57;;;;;;;4.79;38.93;94650.72;5093535;28;20035;-44
2022/03/22 07:55:22;;;;;;;17.30;10.75;;;;;;;4.83;40.02;94645.78;5099517;28;20054;-43
2022/03/22 07:57:47;;;;;;;19.23;10.82;;;;;;;4.77;40.99;94634.03;5113585;28;20071;-44
2022/03/22 08:00:13;;;;;;;28.38;13.35;;;;;;;4.77;41.70;94628.56;5113552;28;20066;-44
2022/03/22 08:02:56;;;;;;;29.13;12.00;;;;;;;4.85;41.39;94626.16;5113539;28;20110;-43
2022/03/22 08:05:22;;;;;;;20.67;9.68;;;;;;;5.08;41.01;94647.78;5113630;28;20044;-45
2022/03/22 08:07:48;;;;;;;30.45;14.15;;;;;;;5.28;40.95;94642.22;5113724;28;20030;-43
2022/03/22 08:10:13;;;;;;;22.95;10.90;;;;;;;5.39;40.75;94644.31;5109357;28;20020;-43
2022/03/22 08:12:40;;;;;;;21.02;11.25;;;;;;;5.43;40.41;94647.59;5093193;28;20049;-43
2022/03/22 08:15:06;;;;;;;24.58;12.30;;;;;;;5.48;40.56;94641.38;5093329;28;20645;-44
2022/03/22 08:17:31;;;;;;;17.27;9.98;;;;;;;5.50;40.83;94624.47;5093310;28;20076;-44
2022/03/22 08:19:57;;;;;;;18.42;10.95;;;;;;;5.52;42.36;94616.53;5093145;28;20020;-44
2022/03/22 08:22:22;;;;;;;19.60;9.80;;;;;;;5.38;41.73;94620.91;5093214;28;20492;-43
2022/03/22 08:24:48;;;;;;;21.75;10.60;;;;;;;5.29;41.53;94626.53;5093003;28;20024;-44
2022/03/22 08:27:13;;;;;;;17.73;9.68;;;;;;;5.24;40.57;94632.75;5093128;28;20030;-42
2022/03/22 08:29:39;;;;;;;21.35;9.10;;;;;;;5.23;41.15;94629.25;5092952;28;20110;-42
2022/03/22 08:32:05;;;;;;;16.05;10.05;;;;;;;5.29;41.67;94624.56;5092534;28;20024;-42
2022/03/22 08:34:30;;;;;;;25.77;12.10;;;;;;;5.33;42.52;94624.34;5092621;28;20508;-42
2022/03/22 08:36:56;;;;;;;12.38;9.40;;;;;;;5.27;42.11;94620.81;5092783;28;20027;-42
2022/03/22 08:39:21;;;;;;;17.73;9.70;;;;;;;5.40;41.84;94626.63;5092870;28;20028;-42
2022/03/22 08:41:47;;;;;;;23.40;11.02;;;;;;;5.44;42.22;94609.97;5109443;28;20622;-42
2022/03/22 08:44:13;;;;;;;18.40;10.75;;;;;;;5.53;42.69;94618.00;5113125;27;20016;-42
2022/03/22 08:46:38;;;;;;;20.42;11.88;;;;;;;5.55;42.14;94608.06;5113055;28;20058;-43
2022/03/22 08:49:04;;;;;;;20.00;10.10;;;;;;;5.64;41.74;94610.63;5112696;28;20031;-42
2022/03/22 08:51:30;;;;;;;18.55;9.95;;;;;;;5.67;41.60;94595.19;5112993;28;20110;-42
2022/03/22 08:53:56;;;;;;;21.83;11.65;;;;;;;5.87;42.06;94612.28;5112477;28;20472;-44
2022/03/22 08:56:25;;;;;;;22.98;10.45;;;;;;;6.11;40.66;94604.44;5103803;27;20016;-43
2022/03/22 08:58:53;;;;;;;15.10;9.18;;;;;;;6.30;39.90;94615.75;5112511;28;20040;-44
2022/03/22 09:01:24;;;;;;;17.88;10.65;;;;;;;6.36;40.61;94613.00;5112499;27;20038;-42
2022/03/22 09:06:07;;;;;;;23.48;11.98;;;;;;;6.38;41.03;94618.75;5112475;28;20412;-44
2022/03/22 09:06:37;;;;;;;14.85;9.18;;;;;;;6.34;40.29;94610.75;5112486;28;20089;-43
2022/03/22 09:09:05;;;;;;;22.67;10.27;;;;;;;6.27;41.41;94594.03;5112372;28;20024;-42
2022/03/22 09:11:30;;;;;;;17.88;10.68;;;;;;;6.20;41.84;94594.47;5097366;28;20024;-42
2022/03/22 09:13:56;;;;;;;23.35;10.57;;;;;;;6.15;42.48;94584.25;5092027;28;20024;-42
2022/03/22 09:16:21;;;;;;;16.35;9.05;;;;;;;6.26;41.32;94593.25;5092142;28;20503;-44
2022/03/22 09:18:47;;;;;;;18.13;10.63;;;;;;;6.42;41.68;94580.84;5092021;28;20412;-43
2022/03/22 09:21:14;;;;;;;14.05;8.70;;;;;;;6.51;41.98;94592.38;5091762;28;20027;-43
2022/03/22 09:23:43;;;;;;;12.20;8.00;;;;;;;6.44;42.26;94561.91;5091890;28;20173;-44
2022/03/22 09:26:09;;;;;;;13.25;8.15;;;;;;;6.43;43.00;94572.13;5091862;28;20024;-45
2022/03/22 09:28:34;;;;;;;20.13;12.07;;;;;;;6.15;44.85;94573.28;5091641;28;20508;-43
2022/03/22 09:31:00;;;;;;;13.38;9.48;;;;;;;6.31;43.42;94578.06;5090906;28;20016;-43
2022/03/22 09:33:25;;;;;;;23.90;13.65;;;;;;;6.35;43.86;94570.34;5091149;28;20020;-42
2022/03/22 09:35:53;;;;;;;16.27;9.10;;;;;;;6.46;43.30;94570.38;5091693;28;20512;-43
2022/03/22 09:38:19;;;;;;;13.32;8.88;;;;;;;6.58;43.72;94571.94;5091320;28;20099;-44
2022/03/22 09:40:45;;;;;;;22.83;12.60;;;;;;;6.70;44.05;94551.50;5091007;28;20077;-42
2022/03/22 09:43:11;;;;;;;13.30;9.35;;;;;;;6.65;44.21;94552.22;5090813;28;20043;-43
2022/03/22 09:45:37;;;;;;;13.95;8.38;;;;;;;6.53;45.21;94553.47;5091631;28;20033;-42
2022/03/22 09:48:04;;;;;;;15.27;8.02;;;;;;;6.84;44.79;94550.53;5091559;28;20023;-43
2022/03/22 09:53:15;;;;;;;13.57;7.45;;;;;;;7.38;45.32;94521.53;5101888;28;20497;-43
2022/03/22 09:55:41;;;;;;;10.90;6.65;;;;;;;7.85;43.39;94521.66;5111770;28;20051;-44
2022/03/22 09:58:08;;;;;;;14.77;7.85;;;;;;;7.99;43.57;94513.09;5111241;28;20436;-43
2022/03/22 10:00:34;;;;;;;11.10;6.95;;;;;;;8.08;42.67;94512.81;5111680;28;20019;-44
2022/03/22 10:02:59;;;;;;;10.07;6.05;;;;;;;8.56;42.21;94498.59;5111566;28;20424;-44
2022/03/22 10:05:29;;;;;;;10.93;6.82;;;;;;;8.82;42.35;94507.16;5111344;28;20027;-42
2022/03/22 10:08:04;;;;;;;11.73;7.22;;;;;;;8.84;41.50;94521.16;5111230;28;20020;-44
2022/03/22 10:10:30;;;;;;;12.10;6.82;;;;;;;8.53;41.61;94523.66;5104752;28;20016;-43
2022/03/22 10:12:58;;;;;;;9.45;5.78;;;;;;;8.08;42.94;94537.56;5090771;28;20031;-43
2022/03/22 10:15:29;;;;;;;10.95;6.05;;;;;;;7.78;44.13;94519.44;5090850;28;20020;-43
2022/03/22 10:18:06;;;;;;;15.50;7.25;;;;;;;7.78;44.24;94539.44;5090749;28;20085;-44
2022/03/22 10:20:34;;;;;;;11.50;6.60;;;;;;;8.51;42.49;94521.38;5091003;28;20394;-43
2022/03/22 10:23:00;;;;;;;11.82;7.05;;;;;;;8.48;42.43;94522.41;5090607;28;20028;-44
2022/03/22 10:25:26;;;;;;;11.07;6.55;;;;;;;8.28;43.23;94506.25;5090913;28;20020;-44
2022/03/22 10:27:56;;;;;;;10.35;5.75;;;;;;;9.46;41.61;94526.94;5090841;28;20054;-46
2022/03/22 10:30:21;;;;;;;;;;;;;;;8.83;42.52;94519.69;5091355;28;20095;-44
2022/03/22 10:32:51;;;;;;;13.13;5.90;;;;;;;8.65;42.58;94519.56;5090364;28;20007;-44
2022/03/22 10:35:25;;;;;;;8.77;6.72;;;;;;;9.98;40.92;94526.66;5090481;28;20015;-43
2022/03/22 10:37:55;;;;;;;11.63;6.32;;;;;;;11.12;36.95;94527.66;5090408;28;20446;-43
2022/03/22 10:40:42;;;;;;;11.13;7.40;;;;;;;11.48;37.19;94517.03;5095602;28;20417;-42
2022/03/22 10:43:10;;;;;;;13.30;8.38;;;;;;;11.51;35.89;94508.41;5110718;28;20103;-43
2022/03/22 10:45:49;;;;;;;11.77;8.10;;;;;;;10.87;36.05;94526.28;5111042;28;20396;-43
2022/03/22 10:48:33;;;;;;;10.10;7.07;;;;;;;10.30;37.48;94533.81;5110651;28;20104;-43
2022/03/22 10:51:00;;;;;;;11.70;8.32;;;;;;;9.83;39.21;94525.03;5090224;28;20093;-44
2022/03/22 10:53:28;;;;;;;11.10;7.95;;;;;;;9.53;38.79;94516.06;5090254;28;20020;-44
2022/03/22 10:55:54;;;;;;;16.58;9.57;;;;;;;9.82;40.14;94504.25;5107214;28;20102;-45
2022/03/22 10:58:22;;;;;;;19.08;9.98;;;;;;;10.38;38.03;94504.34;5117212;27;20058;-44
2022/03/22 11:00:49;;;;;;;18.77;10.10;;;;;;;10.45;37.58;94520.31;5117359;27;20074;-45
2022/03/22 11:03:15;;;;;;;18.50;11.05;;;;;;;10.12;37.58;94519.97;5117362;27;20019;-45
2022/03/22 11:05:42;;;;;;;13.00;7.22;;;;;;;9.84;37.86;94512.75;5117329;27;20030;-43
2022/03/22 11:08:08;;;;;;;13.60;7.40;;;;;;;10.04;37.58;94514.28;5117571;27;20102;-45
2022/03/22 11:10:34;;;;;;;15.32;8.45;;;;;;;10.61;38.81;94488.97;5116076;28;20536;-43
2022/03/22 11:13:00;;;;;;;19.75;10.75;;;;;;;12.12;35.83;94496.22;5115971;28;20575;-43
2022/03/22 11:15:27;;;;;;;13.20;8.02;;;;;;;13.25;32.15;94483.66;5116101;28;20103;-44
2022/03/22 11:17:54;;;;;;;12.98;9.00;;;;;;;13.61;32.69;94478.22;5116003;28;20023;-43
2022/03/22 11:20:23;;;;;;;30.23;15.05;;;;;;;14.05;31.33;94471.47;5115876;28;20023;-43
2022/03/22 11:22:51;;;;;;;19.85;12.15;;;;;;;13.89;30.89;94488.56;5117434;27;20099;-43
2022/03/22 11:25:35;;;;;;;18.23;9.25;;;;;;;14.10;29.27;94473.34;5117127;27;20030;-43
2022/03/22 11:28:11;;;;;;;33.75;14.02;;;;;;;14.40;31.11;94459.63;5117429;27;20047;-44
2022/03/22 11:30:39;;;;;;;22.23;10.93;;;;;;;15.61;30.15;94453.56;5117139;27;20051;-43
2022/03/22 11:35:50;;;;;;;18.95;11.52;;;;;;;14.93;28.17;94461.81;5117335;28;20099;-43
2022/03/22 11:38:39;;;;;;;12.52;8.38;;;;;;;14.63;27.50;94448.59;5117069;27;20098;-43
2022/03/22 11:43:48;;;;;;;13.25;7.78;;;;;;;15.22;28.06;94404.75;5117238;28;20077;-43
2022/03/22 11:46:15;;;;;;;12.60;8.77;;;;;;;14.54;28.86;94431.69;5102008;27;20036;-43
2022/03/22 11:48:40;;;;;;;12.27;7.30;;;;;;;14.26;28.70;94419.34;5096455;28;20485;-44
2022/03/22 11:51:08;;;;;;;14.10;8.80;;;;;;;13.97;28.41;94419.97;5096503;28;20089;-44
2022/03/22 11:53:44;;;;;;;9.52;6.93;;;;;;;13.57;29.94;94414.00;5096437;28;20520;-43
2022/03/22 11:56:10;;;;;;;10.43;7.47;;;;;;;13.51;29.16;94413.41;5108942;28;20019;-44
2022/03/22 11:58:36;;;;;;;13.40;8.00;;;;;;;12.71;29.89;94392.94;5115579;28;20131;-43
2022/03/22 12:01:03;;;;;;;10.60;7.43;;;;;;;11.83;32.31;94415.03;5116761;27;20055;-44